sensor_id;sensor_type;location;lat;lon;timestamp;pressure;altitude;pressure_sealevel;temperature;humidity
19208;BME280;9737;59.466;18.036;2022-11-04T00:02:14;97610.09;;;7.06;85.29
19208;BME280;9737;59.466;18.036;2022-11-04T00:04:43;97696.94;;;7.27;85.63
19208;BME280;9737;59.466;18.036;2022-11-04T00:07:11;97683.19;;;7.24;85.69
19208;BME280;9737;59.466;18.036;2022-11-04T00:09:53;97699.41;;;7.29;85.10
19208;BME280;9737;59.466;18.036;2022-11-04T00:12:21;97743.41;;;7.38;85.27
19208;BME280;9737;59.466;18.036;2022-11-04T00:14:51;97751.34;;;7.38;85.51
19208;BME280;9737;59.466;18.036;2022-11-04T00:17:19;97780.44;;;7.46;85.43
19208;BME280;9737;59.466;18.036;2022-11-04T00:19:50;97794.19;;;7.50;85.54
19208;BME280;9737;59.466;18.036;2022-11-04T00:22:37;97777.13;;;7.44;85.65
19208;BME280;9737;59.466;18.036;2022-11-04T00:25:23;97757.28;;;7.40;85.35
19208;BME280;9737;59.466;18.036;2022-11-04T00:28:10;97741.06;;;7.35;85.71
19208;BME280;9737;59.466;18.036;2022-11-04T00:30:57;97691.81;;;7.26;85.76
19208;BME280;9737;59.466;18.036;2022-11-04T00:33:46;97656.88;;;7.14;85.68
19208;BME280;9737;59.466;18.036;2022-11-04T00:36:16;97626.78;;;7.07;85.59
19208;BME280;9737;59.466;18.036;2022-11-04T00:38:44;97570.06;;;6.93;85.42
19208;BME280;9737;59.466;18.036;2022-11-04T00:41:12;97530.56;;;6.83;85.75
19208;BME280;9737;59.466;18.036;2022-11-04T00:43:54;97486.81;;;6.73;85.80
19208;BME280;9737;59.466;18.036;2022-11-04T00:46:23;97416.44;;;6.56;85.95
19208;BME280;9737;59.466;18.036;2022-11-04T00:48:51;97348.91;;;6.37;85.60
19208;BME280;9737;59.466;18.036;2022-11-04T00:51:20;97367.72;;;6.42;86.05
19208;BME280;9737;59.466;18.036;2022-11-04T00:53:48;97470.44;;;6.69;85.89
19208;BME280;9737;59.466;18.036;2022-11-04T00:56:16;97526.13;;;6.84;86.10
19208;BME280;9737;59.466;18.036;2022-11-04T00:58:44;97504.81;;;6.77;85.87
19208;BME280;9737;59.466;18.036;2022-11-04T01:01:14;97487.47;;;6.75;85.77
19208;BME280;9737;59.466;18.036;2022-11-04T01:03:44;97473.25;;;6.68;85.57
19208;BME280;9737;59.466;18.036;2022-11-04T01:06:12;97486.81;;;6.73;85.85
19208;BME280;9737;59.466;18.036;2022-11-04T01:08:41;97468.59;;;6.62;85.86
19208;BME280;9737;59.466;18.036;2022-11-04T01:11:10;97420.72;;;6.57;86.18
19208;BME280;9737;59.466;18.036;2022-11-04T01:13:38;97455.91;;;6.65;85.99
19208;BME280;9737;59.466;18.036;2022-11-04T01:16:08;97488.47;;;6.74;86.22
19208;BME280;9737;59.466;18.036;2022-11-04T01:18:37;97571.88;;;6.93;86.07
19208;BME280;9737;59.466;18.036;2022-11-04T01:21:07;97635.22;;;7.10;86.06
19208;BME280;9737;59.466;18.036;2022-11-04T01:23:35;97612.41;;;7.01;85.92
19208;BME280;9737;59.466;18.036;2022-11-04T01:26:05;97573.41;;;6.95;85.68
19208;BME280;9737;59.466;18.036;2022-11-04T01:28:33;97552.22;;;6.87;85.77
19208;BME280;9737;59.466;18.036;2022-11-04T01:31:04;97507.44;;;6.77;86.02
19208;BME280;9737;59.466;18.036;2022-11-04T01:33:32;97460.22;;;6.66;85.96
19208;BME280;9737;59.466;18.036;2022-11-04T01:36:01;97389.03;;;6.48;86.41
19208;BME280;9737;59.466;18.036;2022-11-04T01:38:29;97340.47;;;6.33;86.16
19208;BME280;9737;59.466;18.036;2022-11-04T01:40:57;97318.69;;;6.31;86.44
19208;BME280;9737;59.466;18.036;2022-11-04T01:43:42;97291.63;;;6.21;86.10
19208;BME280;9737;59.466;18.036;2022-11-04T01:46:13;97302.69;;;6.25;85.95
19208;BME280;9737;59.466;18.036;2022-11-04T01:48:44;97330.88;;;6.32;86.13
19208;BME280;9737;59.466;18.036;2022-11-04T01:51:12;97371.50;;;6.39;86.40
19208;BME280;9737;59.466;18.036;2022-11-04T01:53:42;97362.78;;;6.39;85.87
19208;BME280;9737;59.466;18.036;2022-11-04T01:56:12;97408.16;;;6.50;85.97
19208;BME280;9737;59.466;18.036;2022-11-04T01:58:45;97414.94;;;6.53;86.31
19208;BME280;9737;59.466;18.036;2022-11-04T02:01:14;97383.25;;;6.45;86.39
19208;BME280;9737;59.466;18.036;2022-11-04T02:03:46;97355.69;;;6.39;86.03
19208;BME280;9737;59.466;18.036;2022-11-04T02:06:18;97365.41;;;6.39;85.88
19208;BME280;9737;59.466;18.036;2022-11-04T02:08:46;97415.59;;;6.55;86.41
19208;BME280;9737;59.466;18.036;2022-11-04T02:11:15;97549.56;;;6.87;86.17
19208;BME280;9737;59.466;18.036;2022-11-04T02:13:59;97643.16;;;7.10;86.24
19208;BME280;9737;59.466;18.036;2022-11-04T02:16:35;97748.00;;;7.36;86.27
19208;BME280;9737;59.466;18.036;2022-11-04T02:19:19;97819.34;;;7.54;85.97
19208;BME280;9737;59.466;18.036;2022-11-04T02:22:22;97870.16;;;7.65;86.35
19208;BME280;9737;59.466;18.036;2022-11-04T02:25:08;97922.81;;;7.76;86.20
19208;BME280;9737;59.466;18.036;2022-11-04T02:27:52;97946.00;;;7.83;86.24
19208;BME280;9737;59.466;18.036;2022-11-04T02:30:32;98026.84;;;8.03;85.97
19208;BME280;9737;59.466;18.036;2022-11-04T02:33:11;98023.22;;;8.04;86.24
19208;BME280;9737;59.466;18.036;2022-11-04T02:35:51;98063.00;;;8.12;86.36
19208;BME280;9737;59.466;18.036;2022-11-04T02:38:29;98066.47;;;8.13;86.08
19208;BME280;9737;59.466;18.036;2022-11-04T02:41:03;98046.44;;;8.10;86.35
19208;BME280;9737;59.466;18.036;2022-11-04T02:43:43;98055.22;;;8.11;86.34
19208;BME280;9737;59.466;18.036;2022-11-04T02:46:16;98010.59;;;7.98;86.45
19208;BME280;9737;59.466;18.036;2022-11-04T02:48:48;97973.50;;;7.90;86.38
19208;BME280;9737;59.466;18.036;2022-11-04T02:51:23;97943.53;;;7.81;86.17
19208;BME280;9737;59.466;18.036;2022-11-04T02:53:59;97918.50;;;7.75;86.58
19208;BME280;9737;59.466;18.036;2022-11-04T02:56:30;97875.44;;;7.65;86.55
19208;BME280;9737;59.466;18.036;2022-11-04T02:59:02;97837.31;;;7.50;86.60
19208;BME280;9737;59.466;18.036;2022-11-04T03:01:35;97802.44;;;7.46;86.68
19208;BME280;9737;59.466;18.036;2022-11-04T03:04:08;97755.28;;;7.34;86.48
19208;BME280;9737;59.466;18.036;2022-11-04T03:06:38;97723.53;;;7.26;86.68
19208;BME280;9737;59.466;18.036;2022-11-04T03:09:10;97652.88;;;7.10;86.60
19208;BME280;9737;59.466;18.036;2022-11-04T03:11:42;97720.88;;;7.26;86.47
19208;BME280;9737;59.466;18.036;2022-11-04T03:14:13;97721.72;;;7.26;86.71
19208;BME280;9737;59.466;18.036;2022-11-04T03:16:46;97676.19;;;7.14;86.54
19208;BME280;9737;59.466;18.036;2022-11-04T03:19:25;97574.16;;;6.79;86.65
19208;BME280;9737;59.466;18.036;2022-11-04T03:21:58;97561.13;;;6.86;86.36
19208;BME280;9737;59.466;18.036;2022-11-04T03:24:27;97507.78;;;6.74;86.69
19208;BME280;9737;59.466;18.036;2022-11-04T03:26:59;97478.00;;;6.64;86.40
19208;BME280;9737;59.466;18.036;2022-11-04T03:29:30;97456.38;;;6.61;86.96
19208;BME280;9737;59.466;18.036;2022-11-04T03:32:05;97457.34;;;6.60;86.94
19208;BME280;9737;59.466;18.036;2022-11-04T03:34:35;97462.31;;;6.63;86.67
19208;BME280;9737;59.466;18.036;2022-11-04T03:37:04;97490.75;;;6.69;86.42
19208;BME280;9737;59.466;18.036;2022-11-04T03:39:32;97517.34;;;6.75;86.46
19208;BME280;9737;59.466;18.036;2022-11-04T03:42:02;97516.00;;;6.71;86.80
19208;BME280;9737;59.466;18.036;2022-11-04T03:44:48;97552.53;;;6.84;86.99
19208;BME280;9737;59.466;18.036;2022-11-04T03:47:19;97638.50;;;7.04;86.59
19208;BME280;9737;59.466;18.036;2022-11-04T03:49:48;97583.59;;;6.90;86.42
19208;BME280;9737;59.466;18.036;2022-11-04T03:52:18;97469.22;;;6.56;86.92
19208;BME280;9737;59.466;18.036;2022-11-04T03:54:46;97403.22;;;6.47;86.96
19208;BME280;9737;59.466;18.036;2022-11-04T03:57:33;97301.34;;;6.20;86.59
19208;BME280;9737;59.466;18.036;2022-11-04T04:00:09;97270.66;;;6.11;87.12
19208;BME280;9737;59.466;18.036;2022-11-04T04:02:48;97195.94;;;5.95;87.06
19208;BME280;9737;59.466;18.036;2022-11-04T04:05:22;97170.19;;;5.88;86.69
19208;BME280;9737;59.466;18.036;2022-11-04T04:07:55;97193.44;;;5.93;86.71
19208;BME280;9737;59.466;18.036;2022-11-04T04:10:29;97262.91;;;6.10;87.10
19208;BME280;9737;59.466;18.036;2022-11-04T04:13:11;97253.50;;;6.07;87.03
19208;BME280;9737;59.466;18.036;2022-11-04T04:15:46;97196.91;;;5.94;87.17
19208;BME280;9737;59.466;18.036;2022-11-04T04:18:22;97140.34;;;5.80;86.84
19208;BME280;9737;59.466;18.036;2022-11-04T04:20:54;97142.16;;;5.79;87.19
19208;BME280;9737;59.466;18.036;2022-11-04T04:23:26;97129.25;;;5.76;87.08
19208;BME280;9737;59.466;18.036;2022-11-04T04:26:14;97095.97;;;5.67;86.79
19208;BME280;9737;59.466;18.036;2022-11-04T04:29:02;97055.78;;;5.57;87.11
19208;BME280;9737;59.466;18.036;2022-11-04T04:31:33;97058.41;;;5.57;86.59
19208;BME280;9737;59.466;18.036;2022-11-04T04:34:21;97236.31;;;6.03;87.11
19208;BME280;9737;59.466;18.036;2022-11-04T04:36:53;97325.44;;;6.26;87.17
19208;BME280;9737;59.466;18.036;2022-11-04T04:39:24;97351.19;;;6.32;86.79
19208;BME280;9737;59.466;18.036;2022-11-04T04:42:12;97376.97;;;6.38;86.85
19208;BME280;9737;59.466;18.036;2022-11-04T04:44:57;97417.41;;;6.46;87.00
19208;BME280;9737;59.466;18.036;2022-11-04T04:47:34;97447.78;;;6.59;86.96
19208;BME280;9737;59.466;18.036;2022-11-04T04:50:07;97465.28;;;6.60;86.58
19208;BME280;9737;59.466;18.036;2022-11-04T04:52:38;97533.69;;;6.79;86.64
19208;BME280;9737;59.466;18.036;2022-11-04T04:55:08;97572.53;;;6.87;86.58
19208;BME280;9737;59.466;18.036;2022-11-04T04:57:36;97576.66;;;6.89;87.11
19208;BME280;9737;59.466;18.036;2022-11-04T05:00:06;97596.47;;;6.93;86.99
19208;BME280;9737;59.466;18.036;2022-11-04T05:02:34;97625.78;;;7.00;86.88
19208;BME280;9737;59.466;18.036;2022-11-04T05:05:03;97642.13;;;7.03;86.96
19208;BME280;9737;59.466;18.036;2022-11-04T05:07:32;97672.88;;;7.12;87.04
19208;BME280;9737;59.466;18.036;2022-11-04T05:10:00;97669.41;;;7.12;86.63
19208;BME280;9737;59.466;18.036;2022-11-04T05:12:28;97660.66;;;7.11;87.27
19208;BME280;9737;59.466;18.036;2022-11-04T05:15:16;97683.63;;;7.11;87.17
19208;BME280;9737;59.466;18.036;2022-11-04T05:17:44;97685.78;;;7.15;86.96
19208;BME280;9737;59.466;18.036;2022-11-04T05:20:12;97648.25;;;7.04;87.20
19208;BME280;9737;59.466;18.036;2022-11-04T05:22:41;97679.81;;;7.13;87.23
19208;BME280;9737;59.466;18.036;2022-11-04T05:25:09;97710.91;;;7.20;86.94
19208;BME280;9737;59.466;18.036;2022-11-04T05:27:37;97707.28;;;7.21;87.27
19208;BME280;9737;59.466;18.036;2022-11-04T05:30:06;97753.94;;;7.30;87.25
19208;BME280;9737;59.466;18.036;2022-11-04T05:32:34;97748.66;;;7.30;87.04
19208;BME280;9737;59.466;18.036;2022-11-04T05:35:02;97757.25;;;7.32;87.21
19208;BME280;9737;59.466;18.036;2022-11-04T05:37:30;97788.34;;;7.38;87.28
19208;BME280;9737;59.466;18.036;2022-11-04T05:40:00;97811.66;;;7.42;87.05
19208;BME280;9737;59.466;18.036;2022-11-04T05:42:29;97797.78;;;7.40;87.15
19208;BME280;9737;59.466;18.036;2022-11-04T05:44:57;97798.59;;;7.41;87.25
19208;BME280;9737;59.466;18.036;2022-11-04T05:47:25;97773.94;;;7.32;87.11
19208;BME280;9737;59.466;18.036;2022-11-04T05:49:53;97728.13;;;7.24;87.24
19208;BME280;9737;59.466;18.036;2022-11-04T05:52:21;97659.31;;;7.07;87.22
19208;BME280;9737;59.466;18.036;2022-11-04T05:54:49;97585.56;;;6.88;87.46
19208;BME280;9737;59.466;18.036;2022-11-04T05:57:19;97520.47;;;6.71;87.25
19208;BME280;9737;59.466;18.036;2022-11-04T05:59:47;97439.84;;;6.50;87.10
19208;BME280;9737;59.466;18.036;2022-11-04T06:02:15;97386.69;;;6.37;87.05
19208;BME280;9737;59.466;18.036;2022-11-04T06:04:43;97348.19;;;6.27;87.51
19208;BME280;9737;59.466;18.036;2022-11-04T06:07:10;97287.31;;;6.12;86.89
19208;BME280;9737;59.466;18.036;2022-11-04T06:09:38;97236.50;;;6.02;87.52
19208;BME280;9737;59.466;18.036;2022-11-04T06:12:08;97218.69;;;5.96;87.05
19208;BME280;9737;59.466;18.036;2022-11-04T06:14:38;97180.22;;;5.85;87.14
19208;BME280;9737;59.466;18.036;2022-11-04T06:17:06;97119.38;;;5.70;87.12
19208;BME280;9737;59.466;18.036;2022-11-04T06:19:34;97056.09;;;5.54;87.67
19208;BME280;9737;59.466;18.036;2022-11-04T06:22:02;97012.25;;;5.45;87.25
19208;BME280;9737;59.466;18.036;2022-11-04T06:24:30;96970.41;;;5.34;86.96
19208;BME280;9737;59.466;18.036;2022-11-04T06:26:57;96924.31;;;5.21;87.03
19208;BME280;9737;59.466;18.036;2022-11-04T06:29:25;96890.38;;;5.10;87.39
19208;BME280;9737;59.466;18.036;2022-11-04T06:31:55;96852.53;;;5.03;87.50
19208;BME280;9737;59.466;18.036;2022-11-04T06:34:23;96837.41;;;4.97;87.46
19208;BME280;9737;59.466;18.036;2022-11-04T06:36:51;96811.72;;;4.91;87.65
19208;BME280;9737;59.466;18.036;2022-11-04T06:39:18;96783.41;;;4.85;87.18
19208;BME280;9737;59.466;18.036;2022-11-04T06:41:47;96760.38;;;4.79;87.44
19208;BME280;9737;59.466;18.036;2022-11-04T06:44:17;96737.19;;;4.74;87.44
19208;BME280;9737;59.466;18.036;2022-11-04T06:46:45;96750.19;;;4.76;87.01
19208;BME280;9737;59.466;18.036;2022-11-04T06:49:17;96776.19;;;4.79;87.01
19208;BME280;9737;59.466;18.036;2022-11-04T06:51:46;96803.81;;;4.91;86.90
19208;BME280;9737;59.466;18.036;2022-11-04T06:54:15;96832.13;;;4.97;87.58
19208;BME280;9737;59.466;18.036;2022-11-04T06:56:44;96839.69;;;5.00;87.79
19208;BME280;9737;59.466;18.036;2022-11-04T06:59:14;96866.19;;;5.07;87.23
19208;BME280;9737;59.466;18.036;2022-11-04T07:01:43;96903.88;;;5.15;87.09
19208;BME280;9737;59.466;18.036;2022-11-04T07:04:11;96922.69;;;5.20;87.79
19208;BME280;9737;59.466;18.036;2022-11-04T07:06:42;96934.53;;;5.24;87.08
19208;BME280;9737;59.466;18.036;2022-11-04T07:09:12;96962.03;;;5.30;87.26
19208;BME280;9737;59.466;18.036;2022-11-04T07:11:42;96985.91;;;5.37;87.57
19208;BME280;9737;59.466;18.036;2022-11-04T07:14:10;97013.25;;;5.44;86.93
19208;BME280;9737;59.466;18.036;2022-11-04T07:16:39;97029.38;;;5.49;87.21
19208;BME280;9737;59.466;18.036;2022-11-04T07:19:07;97066.31;;;5.57;87.38
19208;BME280;9737;59.466;18.036;2022-11-04T07:21:35;97155.34;;;5.79;87.41
19208;BME280;9737;59.466;18.036;2022-11-04T07:24:05;97236.81;;;5.99;87.41
19208;BME280;9737;59.466;18.036;2022-11-04T07:26:33;97287.31;;;6.12;87.70
19208;BME280;9737;59.466;18.036;2022-11-04T07:29:01;97422.84;;;6.45;87.32
19208;BME280;9737;59.466;18.036;2022-11-04T07:31:32;97540.28;;;6.75;87.06
19208;BME280;9737;59.466;18.036;2022-11-04T07:34:00;97631.88;;;7.00;87.32
19208;BME280;9737;59.466;18.036;2022-11-04T07:36:29;97750.63;;;7.28;87.25
19208;BME280;9737;59.466;18.036;2022-11-04T07:38:57;97881.22;;;7.61;87.25
19208;BME280;9737;59.466;18.036;2022-11-04T07:41:26;97989.03;;;7.85;87.39
19208;BME280;9737;59.466;18.036;2022-11-04T07:43:55;98074.03;;;8.07;87.11
19208;BME280;9737;59.466;18.036;2022-11-04T07:46:24;98125.59;;;8.21;87.47
19208;BME280;9737;59.466;18.036;2022-11-04T07:48:55;98162.91;;;8.28;87.07
19208;BME280;9737;59.466;18.036;2022-11-04T07:51:24;98188.63;;;8.35;87.35
19208;BME280;9737;59.466;18.036;2022-11-04T07:53:53;98219.53;;;8.45;87.38
19208;BME280;9737;59.466;18.036;2022-11-04T07:56:21;98254.19;;;8.51;87.42
19208;BME280;9737;59.466;18.036;2022-11-04T07:58:51;98312.22;;;8.62;87.68
19208;BME280;9737;59.466;18.036;2022-11-04T08:01:20;98334.66;;;8.68;87.54
19208;BME280;9737;59.466;18.036;2022-11-04T08:03:50;98364.69;;;8.77;87.18
19208;BME280;9737;59.466;18.036;2022-11-04T08:06:19;98391.44;;;8.83;87.49
19208;BME280;9737;59.466;18.036;2022-11-04T08:08:47;98433.75;;;8.93;87.35
19208;BME280;9737;59.466;18.036;2022-11-04T08:11:21;98454.38;;;8.99;87.37
19208;BME280;9737;59.466;18.036;2022-11-04T08:13:52;98498.56;;;9.08;87.31
19208;BME280;9737;59.466;18.036;2022-11-04T08:16:24;98539.94;;;9.19;87.27
19208;BME280;9737;59.466;18.036;2022-11-04T08:18:59;98595.13;;;9.33;87.26
19208;BME280;9737;59.466;18.036;2022-11-04T08:21:29;98618.72;;;9.36;87.64
19208;BME280;9737;59.466;18.036;2022-11-04T08:23:58;98656.63;;;9.46;87.38
19208;BME280;9737;59.466;18.036;2022-11-04T08:26:29;98710.19;;;9.59;86.99
19208;BME280;9737;59.466;18.036;2022-11-04T08:28:58;98752.47;;;9.71;87.81
19208;BME280;9737;59.466;18.036;2022-11-04T08:31:29;98844.16;;;9.92;87.12
19208;BME280;9737;59.466;18.036;2022-11-04T08:33:58;98925.03;;;10.08;87.40
19208;BME280;9737;59.466;18.036;2022-11-04T08:36:28;98955.91;;;10.18;86.97
19208;BME280;9737;59.466;18.036;2022-11-04T08:38:57;99004.53;;;10.29;87.78
19208;BME280;9737;59.466;18.036;2022-11-04T08:41:31;99067.88;;;10.43;87.42
19208;BME280;9737;59.466;18.036;2022-11-04T08:44:01;99128.53;;;10.57;87.62
19208;BME280;9737;59.466;18.036;2022-11-04T08:46:33;99157.75;;;10.67;87.16
19208;BME280;9737;59.466;18.036;2022-11-04T08:49:01;99199.44;;;10.76;87.19
19208;BME280;9737;59.466;18.036;2022-11-04T08:51:38;99247.97;;;10.88;87.45
19208;BME280;9737;59.466;18.036;2022-11-04T08:54:06;99285.34;;;10.96;87.19
19208;BME280;9737;59.466;18.036;2022-11-04T08:56:37;99341.75;;;11.09;87.49
19208;BME280;9737;59.466;18.036;2022-11-04T08:59:06;99423.41;;;11.28;87.61
19208;BME280;9737;59.466;18.036;2022-11-04T09:01:36;99501.69;;;11.44;87.42
19208;BME280;9737;59.466;18.036;2022-11-04T09:04:05;99613.69;;;11.72;87.42
19208;BME280;9737;59.466;18.036;2022-11-04T09:06:36;99717.09;;;11.97;87.20
19208;BME280;9737;59.466;18.036;2022-11-04T09:09:06;99756.34;;;12.05;87.51
19208;BME280;9737;59.466;18.036;2022-11-04T09:11:37;99776.56;;;12.07;86.98
19208;BME280;9737;59.466;18.036;2022-11-04T09:14:07;99763.78;;;12.01;87.11
19208;BME280;9737;59.466;18.036;2022-11-04T09:16:36;99828.38;;;12.24;87.20
19208;BME280;9737;59.466;18.036;2022-11-04T09:19:05;99839.88;;;12.25;87.19
19208;BME280;9737;59.466;18.036;2022-11-04T09:21:34;99911.47;;;12.39;87.23
19208;BME280;9737;59.466;18.036;2022-11-04T09:24:02;99840.84;;;12.24;87.25
19208;BME280;9737;59.466;18.036;2022-11-04T09:26:31;99802.38;;;12.07;87.13
19208;BME280;9737;59.466;18.036;2022-11-04T09:28:59;99779.94;;;12.09;87.15
19208;BME280;9737;59.466;18.036;2022-11-04T09:31:29;99782.47;;;12.11;87.08
19208;BME280;9737;59.466;18.036;2022-11-04T09:33:57;99851.25;;;12.27;87.37
19208;BME280;9737;59.466;18.036;2022-11-04T09:36:25;99873.97;;;12.31;87.22
19208;BME280;9737;59.466;18.036;2022-11-04T09:38:54;99885.22;;;12.34;87.16
19208;BME280;9737;59.466;18.036;2022-11-04T09:41:41;99878.34;;;12.32;87.08
19208;BME280;9737;59.466;18.036;2022-11-04T09:44:20;99912.31;;;12.39;87.05
19208;BME280;9737;59.466;18.036;2022-11-04T09:46:54;99990.56;;;12.59;86.95
19208;BME280;9737;59.466;18.036;2022-11-04T09:49:26;99985.47;;;12.47;87.05
19208;BME280;9737;59.466;18.036;2022-11-04T09:51:56;100016.81;;;12.64;87.15
19208;BME280;9737;59.466;18.036;2022-11-04T09:54:32;100206.06;;;13.07;86.91
19208;BME280;9737;59.466;18.036;2022-11-04T09:57:02;100195.78;;;13.02;87.09
19208;BME280;9737;59.466;18.036;2022-11-04T09:59:32;100040.56;;;12.67;87.03
19208;BME280;9737;59.466;18.036;2022-11-04T10:02:16;99975.09;;;12.53;87.00
19208;BME280;9737;59.466;18.036;2022-11-04T10:04:55;99856.44;;;12.19;86.94
19208;BME280;9737;59.466;18.036;2022-11-04T10:07:37;99917.50;;;12.41;86.81
19208;BME280;9737;59.466;18.036;2022-11-04T10:10:13;99913.56;;;12.35;86.91
19208;BME280;9737;59.466;18.036;2022-11-04T10:12:58;100015.28;;;12.61;86.87
19208;BME280;9737;59.466;18.036;2022-11-04T10:15:41;100401.41;;;13.54;86.62
19208;BME280;9737;59.466;18.036;2022-11-04T10:18:21;101226.84;;;15.42;86.68
19208;BME280;9737;59.466;18.036;2022-11-04T10:20:57;101847.13;;;16.84;86.50
19208;BME280;9737;59.466;18.036;2022-11-04T10:23:31;102132.75;;;17.45;86.48
19208;BME280;9737;59.466;18.036;2022-11-04T10:26:05;101633.47;;;16.34;86.58
19208;BME280;9737;59.466;18.036;2022-11-04T10:28:39;101268.97;;;15.51;86.58
19208;BME280;9737;59.466;18.036;2022-11-04T10:31:11;100790.56;;;14.41;86.43
19208;BME280;9737;59.466;18.036;2022-11-04T10:33:44;100741.63;;;14.30;86.56
19208;BME280;9737;59.466;18.036;2022-11-04T10:36:15;100862.31;;;14.59;86.59
19208;BME280;9737;59.466;18.036;2022-11-04T10:38:46;100652.34;;;14.10;86.48
19208;BME280;9737;59.466;18.036;2022-11-04T10:41:22;100682.00;;;14.18;86.67
19208;BME280;9737;59.466;18.036;2022-11-04T10:43:55;100735.44;;;14.29;86.54
19208;BME280;9737;59.466;18.036;2022-11-04T10:46:36;101248.75;;;15.47;86.49
19208;BME280;9737;59.466;18.036;2022-11-04T10:49:23;101562.13;;;16.20;86.03
19208;BME280;9737;59.466;18.036;2022-11-04T10:51:57;101461.34;;;15.94;86.24
19208;BME280;9737;59.466;18.036;2022-11-04T10:54:26;101125.31;;;15.16;86.31
19208;BME280;9737;59.466;18.036;2022-11-04T10:56:55;100863.16;;;14.59;86.43
19208;BME280;9737;59.466;18.036;2022-11-04T10:59:26;100611.47;;;13.98;86.08
19208;BME280;9737;59.466;18.036;2022-11-04T11:01:56;100631.22;;;14.07;86.01
19208;BME280;9737;59.466;18.036;2022-11-04T11:04:29;100804.47;;;14.46;85.90
19208;BME280;9737;59.466;18.036;2022-11-04T11:06:59;100675.44;;;14.11;86.17
19208;BME280;9737;59.466;18.036;2022-11-04T11:09:29;100669.69;;;14.15;85.76
19208;BME280;9737;59.466;18.036;2022-11-04T11:11:59;100709.06;;;14.24;86.01
19208;BME280;9737;59.466;18.036;2022-11-04T11:14:33;100671.53;;;14.15;85.74
19208;BME280;9737;59.466;18.036;2022-11-04T11:17:17;100609.06;;;13.95;85.80
19208;BME280;9737;59.466;18.036;2022-11-04T11:19:49;100676.88;;;14.15;85.90
19208;BME280;9737;59.466;18.036;2022-11-04T11:22:34;100482.69;;;13.72;85.64
19208;BME280;9737;59.466;18.036;2022-11-04T11:25:23;100448.59;;;13.64;85.86
19208;BME280;9737;59.466;18.036;2022-11-04T11:27:54;100557.94;;;13.88;85.80
19208;BME280;9737;59.466;18.036;2022-11-04T11:30:26;100405.78;;;13.55;85.57
19208;BME280;9737;59.466;18.036;2022-11-04T11:32:57;100247.97;;;13.16;85.48
19208;BME280;9737;59.466;18.036;2022-11-04T11:35:30;100072.78;;;12.75;85.70
19208;BME280;9737;59.466;18.036;2022-11-04T11:37:59;99992.53;;;12.57;85.73
19208;BME280;9737;59.466;18.036;2022-11-04T11:40:33;99961.06;;;12.51;85.52
19208;BME280;9737;59.466;18.036;2022-11-04T11:43:25;99941.81;;;12.48;85.38
19208;BME280;9737;59.466;18.036;2022-11-04T11:45:54;99945.06;;;12.51;85.54
19208;BME280;9737;59.466;18.036;2022-11-04T11:48:31;100056.06;;;12.73;85.38
19208;BME280;9737;59.466;18.036;2022-11-04T11:51:00;100096.81;;;12.85;85.30
19208;BME280;9737;59.466;18.036;2022-11-04T11:53:29;99997.56;;;12.60;85.29
19208;BME280;9737;59.466;18.036;2022-11-04T11:56:05;99997.00;;;12.57;85.16
19208;BME280;9737;59.466;18.036;2022-11-04T11:58:40;100007.13;;;12.63;85.15
19208;BME280;9737;59.466;18.036;2022-11-04T12:01:35;100002.63;;;12.63;85.16
19208;BME280;9737;59.466;18.036;2022-11-04T12:04:08;99985.22;;;12.59;85.16
19208;BME280;9737;59.466;18.036;2022-11-04T12:07:07;99976.50;;;12.57;85.11
19208;BME280;9737;59.466;18.036;2022-11-04T12:10:06;99862.47;;;12.30;85.31
19208;BME280;9737;59.466;18.036;2022-11-04T12:13:03;99747.53;;;12.04;85.06
19208;BME280;9737;59.466;18.036;2022-11-04T12:16:07;99673.75;;;11.86;85.00
19208;BME280;9737;59.466;18.036;2022-11-04T12:18:54;99663.22;;;11.84;84.91
19208;BME280;9737;59.466;18.036;2022-11-04T12:21:26;99574.88;;;11.60;84.76
19208;BME280;9737;59.466;18.036;2022-11-04T12:24:03;99564.91;;;11.62;84.97
19208;BME280;9737;59.466;18.036;2022-11-04T12:26:42;99517.94;;;11.51;84.76
19208;BME280;9737;59.466;18.036;2022-11-04T12:29:24;99503.09;;;11.48;84.65
19208;BME280;9737;59.466;18.036;2022-11-04T12:32:01;99479.00;;;11.40;84.80
19208;BME280;9737;59.466;18.036;2022-11-04T12:34:40;99440.63;;;11.33;84.83
19208;BME280;9737;59.466;18.036;2022-11-04T12:37:20;99440.63;;;11.33;84.59
19208;BME280;9737;59.466;18.036;2022-11-04T12:40:05;99377.16;;;11.19;84.22
19208;BME280;9737;59.466;18.036;2022-11-04T12:42:41;99333.78;;;11.09;84.29
19208;BME280;9737;59.466;18.036;2022-11-04T12:45:23;99329.44;;;11.08;84.37
19208;BME280;9737;59.466;18.036;2022-11-04T12:47:55;99286.03;;;10.98;84.20
19208;BME280;9737;59.466;18.036;2022-11-04T12:50:45;99258.03;;;10.94;84.51
19208;BME280;9737;59.466;18.036;2022-11-04T12:53:40;99293.75;;;11.01;84.41
19208;BME280;9737;59.466;18.036;2022-11-04T12:56:17;99272.03;;;10.96;84.49
19208;BME280;9737;59.466;18.036;2022-11-04T13:01:47;99239.00;;;10.89;84.03
19208;BME280;9737;59.466;18.036;2022-11-04T13:04:19;99214.69;;;10.83;84.04
19208;BME280;9737;59.466;18.036;2022-11-04T13:06:53;99200.84;;;10.80;84.41
19208;BME280;9737;59.466;18.036;2022-11-04T13:09:29;99172.31;;;10.72;84.38
19208;BME280;9737;59.466;18.036;2022-11-04T13:12:04;99161.53;;;10.64;83.81
19208;BME280;9737;59.466;18.036;2022-11-04T13:14:43;99173.16;;;10.73;83.65
19208;BME280;9737;59.466;18.036;2022-11-04T13:17:15;99140.94;;;10.66;84.39
19208;BME280;9737;59.466;18.036;2022-11-04T13:19:47;99105.44;;;10.58;84.03
19208;BME280;9737;59.466;18.036;2022-11-04T13:22:19;99108.09;;;10.58;83.66
19208;BME280;9737;59.466;18.036;2022-11-04T13:24:50;99099.28;;;10.57;84.32
19208;BME280;9737;59.466;18.036;2022-11-04T13:27:24;99084.63;;;10.53;83.63
19208;BME280;9737;59.466;18.036;2022-11-04T13:30:02;99081.13;;;10.52;83.65
19208;BME280;9737;59.466;18.036;2022-11-04T13:32:36;99081.97;;;10.53;84.21
19208;BME280;9737;59.466;18.036;2022-11-04T13:35:13;99038.63;;;10.43;84.37
19208;BME280;9737;59.466;18.036;2022-11-04T13:37:54;99028.28;;;10.40;83.81
19208;BME280;9737;59.466;18.036;2022-11-04T13:40:27;99018.63;;;10.39;83.81